createdAt,value
2017-12-01T00:00:00.961Z,0.9
2017-12-01T00:01:07.876Z,0.9
2017-12-01T00:02:14.788Z,0.9
2017-12-01T00:03:21.978Z,0.9
2017-12-01T00:04:29.166Z,0.9
2017-12-01T00:05:36.080Z,0.9
2017-12-01T00:06:43.269Z,0.9
2017-12-01T00:07:50.455Z,0.9
2017-12-01T00:08:57.104Z,0.9
2017-12-01T00:10:04.291Z,0.9
2017-12-01T00:11:11.202Z,0.9
2017-12-01T00:12:18.119Z,0.9
2017-12-01T00:13:25.025Z,0.9
2017-12-01T00:14:32.214Z,0.9
2017-12-01T00:15:39.124Z,0.9
2017-12-01T00:16:46.311Z,0.9
2017-12-01T00:17:53.500Z,0.9
2017-12-01T00:19:00.684Z,0.9
2017-12-01T00:20:07.321Z,0.9
2017-12-01T00:21:14.521Z,0.9
2017-12-01T00:22:21.709Z,0.9
2017-12-01T00:23:28.895Z,0.9
2017-12-01T00:24:36.089Z,1
2017-12-01T00:25:43.001Z,0.9
2017-12-01T00:26:50.188Z,0.9
2017-12-01T00:27:57.374Z,0.9
2017-12-01T00:29:04.558Z,1
2017-12-01T00:30:11.480Z,0.9
2017-12-01T00:31:18.115Z,1
2017-12-01T00:32:25.026Z,1
2017-12-01T00:33:31.939Z,1
2017-12-01T00:34:39.131Z,0.9
2017-12-01T00:35:46.316Z,1
2017-12-01T00:36:53.502Z,0.9
2017-12-01T00:38:00.414Z,1
2017-12-01T00:39:07.612Z,0.9
2017-12-01T00:40:14.523Z,0.9
2017-12-01T00:41:21.435Z,0.9
2017-12-01T00:42:28.626Z,1
2017-12-01T00:43:35.544Z,0.9
2017-12-01T00:44:42.749Z,1
2017-12-01T00:45:49.939Z,1
2017-12-01T00:46:57.125Z,1
2017-12-01T00:48:04.311Z,1
2017-12-01T00:49:11.220Z,1
2017-12-01T00:50:18.495Z,1
2017-12-01T00:51:25.675Z,0.9
2017-12-01T00:52:32.587Z,1
2017-12-01T00:53:39.498Z,1
2017-12-01T00:54:46.684Z,1
2017-12-01T00:55:53.598Z,1
2017-12-01T00:57:00.507Z,1
2017-12-01T00:58:07.702Z,1
2017-12-01T00:59:14.611Z,1
2017-12-01T01:00:21.794Z,1
2017-12-01T01:01:28.980Z,1
2017-12-01T01:02:35.891Z,1
2017-12-01T01:03:43.076Z,1
2017-12-01T01:04:50.263Z,1
2017-12-01T01:05:57.452Z,1
2017-12-01T01:07:04.089Z,1
2017-12-01T01:08:11.003Z,1
2017-12-01T01:09:17.923Z,1
2017-12-01T01:10:24.822Z,1
2017-12-01T01:11:32.023Z,1
2017-12-01T01:12:39.211Z,1
2017-12-01T01:13:46.120Z,1
2017-12-01T01:14:53.031Z,1
2017-12-01T01:15:59.942Z,1
2017-12-01T01:17:06.580Z,1
2017-12-01T01:18:13.773Z,1
2017-12-01T01:19:20.957Z,1.1
2017-12-01T01:20:28.143Z,1
2017-12-01T01:21:35.324Z,1.1
2017-12-01T01:22:42.509Z,1
2017-12-01T01:23:49.426Z,1.1
2017-12-01T01:24:56.334Z,1
2017-12-01T01:26:03.247Z,1
2017-12-01T01:27:10.161Z,1.1
2017-12-01T01:28:17.072Z,1
2017-12-01T01:29:24.261Z,1
2017-12-01T01:30:31.443Z,1
2017-12-01T01:31:38.627Z,1
2017-12-01T01:32:45.812Z,1.1
2017-12-01T01:33:52.726Z,1
2017-12-01T01:34:59.636Z,1
2017-12-01T01:36:06.551Z,1
2017-12-01T01:37:13.186Z,1
2017-12-01T01:38:19.817Z,1
2017-12-01T01:39:27.003Z,1
2017-12-01T01:40:33.918Z,1
2017-12-01T01:41:41.107Z,1
2017-12-01T01:42:48.020Z,1
2017-12-01T01:43:54.965Z,1
2017-12-01T01:45:02.195Z,1
2017-12-01T01:46:09.308Z,1
2017-12-01T01:47:16.216Z,1.1
2017-12-01T01:48:23.122Z,1
2017-12-01T01:49:30.308Z,1
2017-12-01T01:50:37.220Z,1
2017-12-01T01:51:44.424Z,1
2017-12-01T01:52:51.606Z,1
2017-12-01T01:53:58.527Z,1
2017-12-01T01:55:05.438Z,1
2017-12-01T01:56:12.621Z,1
2017-12-01T01:57:19.261Z,1
2017-12-01T01:58:26.206Z,1
2017-12-01T01:59:33.375Z,1
2017-12-01T02:00:40.565Z,1
2017-12-01T02:01:47.746Z,1
2017-12-01T02:02:54.654Z,1.1
2017-12-01T02:04:01.561Z,1.1
2017-12-01T02:05:08.748Z,1.1
2017-12-01T02:06:15.967Z,1
2017-12-01T02:07:23.153Z,1.1
2017-12-01T02:08:30.069Z,1
2017-12-01T02:09:37.258Z,1
2017-12-01T02:10:44.447Z,1
2017-12-01T02:11:51.362Z,1
2017-12-01T02:12:58.551Z,1
2017-12-01T02:14:05.745Z,1
2017-12-01T02:15:12.663Z,1.1
2017-12-01T02:16:19.573Z,1.1
2017-12-01T02:17:26.493Z,1.1
2017-12-01T02:18:33.396Z,1.1
2017-12-01T02:19:40.583Z,1.1
2017-12-01T02:20:47.496Z,1.1
2017-12-01T02:21:54.687Z,1.1
2017-12-01T02:23:01.598Z,1.1
2017-12-01T02:24:08.792Z,1.1
2017-12-01T02:25:15.697Z,1.1
2017-12-01T02:26:22.885Z,1.1
2017-12-01T02:27:30.095Z,1.1
2017-12-01T02:28:37.018Z,1.1
2017-12-01T02:29:44.206Z,1.1
2017-12-01T02:30:51.396Z,1.1
2017-12-01T02:31:58.584Z,1.1
2017-12-01T02:33:05.226Z,1.1
2017-12-01T02:34:12.413Z,1.1
2017-12-01T02:35:19.322Z,1.1
2017-12-01T02:36:26.451Z,1.1
2017-12-01T02:37:33.640Z,1.1
2017-12-01T02:38:40.828Z,1.1
2017-12-01T02:39:48.025Z,1.1
2017-12-01T02:40:55.213Z,1.1
2017-12-01T02:42:02.404Z,1.1
2017-12-01T02:43:09.587Z,1.1
2017-12-01T02:44:16.502Z,1.1
2017-12-01T02:45:23.693Z,1.1
2017-12-01T02:46:30.874Z,1.1
2017-12-01T02:47:38.066Z,1.1
2017-12-01T02:48:45.279Z,1
2017-12-01T02:49:52.193Z,1
2017-12-01T02:50:59.382Z,1
2017-12-01T02:52:06.568Z,1
2017-12-01T02:53:13.754Z,1
2017-12-01T02:54:20.943Z,1
2017-12-01T02:55:28.531Z,1
2017-12-01T02:56:35.716Z,1
2017-12-01T02:57:42.631Z,1
2017-12-01T02:58:49.825Z,1
2017-12-01T02:59:56.746Z,1
2017-12-01T03:01:03.931Z,1
2017-12-01T03:02:10.846Z,1
2017-12-01T03:03:18.035Z,1
2017-12-01T03:04:24.947Z,1
2017-12-01T03:05:32.151Z,1
2017-12-01T03:06:39.349Z,1
2017-12-01T03:07:46.261Z,1
2017-12-01T03:08:53.448Z,1
2017-12-01T03:10:00.635Z,1
2017-12-01T03:11:07.592Z,1
2017-12-01T03:12:14.781Z,1
2017-12-01T03:13:21.693Z,1
2017-12-01T03:14:28.886Z,1
2017-12-01T03:15:36.078Z,1
2017-12-01T03:16:42.711Z,1
2017-12-01T03:17:49.898Z,1
2017-12-01T03:18:56.815Z,1.1
2017-12-01T03:20:03.727Z,1
2017-12-01T03:21:10.916Z,1
2017-12-01T03:22:18.103Z,1
2017-12-01T03:23:25.023Z,1
2017-12-01T03:24:31.933Z,1
2017-12-01T03:25:39.124Z,1
2017-12-01T03:26:46.309Z,1
2017-12-01T03:27:53.225Z,1
2017-12-01T03:29:00.414Z,1
2017-12-01T03:30:07.603Z,1
2017-12-01T03:31:14.792Z,1
2017-12-01T03:32:21.980Z,1
2017-12-01T03:33:28.895Z,1
2017-12-01T03:34:36.084Z,1
2017-12-01T03:35:42.724Z,1
2017-12-01T03:36:49.632Z,1
2017-12-01T03:37:56.817Z,1
2017-12-01T03:39:04.008Z,1
2017-12-01T03:40:11.196Z,1
2017-12-01T03:41:18.425Z,1
2017-12-01T03:42:25.606Z,1
2017-12-01T03:43:32.523Z,1
2017-12-01T03:44:39.435Z,1
2017-12-01T03:45:46.620Z,1
2017-12-01T03:46:53.249Z,1
2017-12-01T03:48:00.434Z,1
2017-12-01T03:49:07.345Z,1
2017-12-01T03:50:14.256Z,1
2017-12-01T03:51:21.443Z,1
2017-12-01T03:52:28.627Z,1
2017-12-01T03:53:35.816Z,0.9
2017-12-01T03:54:43.003Z,0.9
2017-12-01T03:55:50.190Z,0.9
2017-12-01T03:56:57.384Z,0.9
2017-12-01T03:58:04.570Z,0.9
2017-12-01T03:59:11.758Z,1
2017-12-01T04:00:18.946Z,1
2017-12-01T04:01:25.853Z,1
2017-12-01T04:02:33.067Z,1
2017-12-01T04:03:39.698Z,1
2017-12-01T04:04:46.890Z,1.1
2017-12-01T04:05:54.075Z,1.1
2017-12-01T04:07:01.283Z,1.1
2017-12-01T04:08:08.471Z,1.1
2017-12-01T04:09:15.663Z,1.1
2017-12-01T04:10:22.848Z,1.1
2017-12-01T04:11:30.034Z,1
2017-12-01T04:12:37.223Z,1
2017-12-01T04:13:44.405Z,1
2017-12-01T04:14:51.315Z,1
2017-12-01T04:15:58.231Z,1
2017-12-01T04:17:05.420Z,0.9
2017-12-01T04:18:12.334Z,0.9
2017-12-01T04:19:19.244Z,0.9
2017-12-01T04:20:26.434Z,0.9
2017-12-01T04:21:33.619Z,0.9
2017-12-01T04:22:40.812Z,0.8
2017-12-01T04:23:47.720Z,0.8
2017-12-01T04:24:54.638Z,0.8
2017-12-01T04:26:01.825Z,0.7
2017-12-01T04:27:09.009Z,0.8
2017-12-01T04:28:16.199Z,0.8
2017-12-01T04:29:23.112Z,0.8
2017-12-01T04:30:30.300Z,0.8
2017-12-01T04:31:37.216Z,0.8
2017-12-01T04:32:44.401Z,0.8
2017-12-01T04:33:51.588Z,0.8
2017-12-01T04:34:58.775Z,0.9
2017-12-01T04:36:05.957Z,0.9
2017-12-01T04:37:13.144Z,0.9
2017-12-01T04:38:20.059Z,0.9
2017-12-01T04:39:27.257Z,0.9
2017-12-01T04:40:34.175Z,0.8
2017-12-01T04:41:41.363Z,0.9
2017-12-01T04:42:48.543Z,0.8
2017-12-01T04:43:55.175Z,0.8
2017-12-01T04:45:02.361Z,0.8
2017-12-01T04:46:09.547Z,0.8
2017-12-01T04:47:16.734Z,0.8
2017-12-01T04:48:23.919Z,0.8
2017-12-01T04:49:31.109Z,0.8
2017-12-01T04:50:38.018Z,0.8
2017-12-01T04:51:44.931Z,0.7
2017-12-01T04:52:51.839Z,0.7
2017-12-01T04:53:59.029Z,0.8
2017-12-01T04:55:06.224Z,0.7
2017-12-01T04:56:13.410Z,0.7
2017-12-01T04:57:20.598Z,0.6
2017-12-01T04:58:27.790Z,0.6
2017-12-01T04:59:34.702Z,0.6
2017-12-01T05:00:41.884Z,0.6
2017-12-01T05:01:49.071Z,0.6
2017-12-01T05:02:55.986Z,0.6
2017-12-01T05:04:02.629Z,0.6
2017-12-01T05:05:09.539Z,0.6
2017-12-01T05:06:16.728Z,0.5
2017-12-01T05:07:23.639Z,0.5
2017-12-01T05:08:30.821Z,0.5
2017-12-01T05:09:38.012Z,0.5
2017-12-01T05:10:44.654Z,0.5
2017-12-01T05:11:51.842Z,0.5
2017-12-01T05:12:58.752Z,0.4
2017-12-01T05:14:05.941Z,0.4
2017-12-01T05:15:13.127Z,0.4
2017-12-01T05:16:20.317Z,0.3
2017-12-01T05:17:27.505Z,0.3
2017-12-01T05:18:34.414Z,0.3
2017-12-01T05:19:41.596Z,0.2
2017-12-01T05:20:48.784Z,0.3
2017-12-01T05:21:55.971Z,0.2
2017-12-01T05:23:03.154Z,0.2
2017-12-01T05:24:10.070Z,0.2
2017-12-01T05:25:17.258Z,0.2
2017-12-01T05:26:23.897Z,0.2
2017-12-01T05:27:31.084Z,0.2
2017-12-01T05:28:38.011Z,0.2
2017-12-01T05:29:44.921Z,0.2
2017-12-01T05:30:51.549Z,0.2
2017-12-01T05:31:58.741Z,0.2
2017-12-01T05:33:05.930Z,0.1
2017-12-01T05:34:13.116Z,0.1
2017-12-01T05:35:20.301Z,0.1
2017-12-01T05:36:27.519Z,0.1
2017-12-01T05:37:34.705Z,0.1
2017-12-01T05:38:41.651Z,0.1
2017-12-01T05:39:48.836Z,0.1
2017-12-01T05:40:56.058Z,0
2017-12-01T05:42:03.247Z,0.1
2017-12-01T05:43:09.896Z,0
2017-12-01T05:44:17.082Z,0
2017-12-01T05:45:24.270Z,0
2017-12-01T05:46:31.184Z,0
2017-12-01T05:47:38.371Z,0
2017-12-01T05:48:45.560Z,0
2017-12-01T05:49:52.748Z,0
2017-12-01T05:50:59.934Z,0
2017-12-01T05:52:06.852Z,0
2017-12-01T05:53:14.033Z,0
2017-12-01T05:54:20.943Z,0
2017-12-01T05:55:28.131Z,0
2017-12-01T05:56:35.044Z,-0.1
2017-12-01T05:57:42.310Z,0
2017-12-01T05:58:49.496Z,0
2017-12-01T05:59:56.404Z,0
2017-12-01T06:01:03.589Z,-0.1
2017-12-01T06:02:10.496Z,0
2017-12-01T06:03:17.686Z,-0.1
2017-12-01T06:04:24.869Z,-0.1
2017-12-01T06:05:32.057Z,-0.1
2017-12-01T06:06:38.974Z,-0.1
2017-12-01T06:07:45.624Z,0
2017-12-01T06:08:52.813Z,-0.1
2017-12-01T06:09:59.731Z,-0.1
2017-12-01T06:11:06.931Z,-0.1
2017-12-01T06:12:13.838Z,-0.1
2017-12-01T06:13:20.744Z,-0.1
2017-12-01T06:14:27.655Z,-0.1
2017-12-01T06:15:34.864Z,-0.1
2017-12-01T06:16:41.785Z,-0.1
2017-12-01T06:17:48.700Z,-0.1
2017-12-01T06:18:55.338Z,-0.1
2017-12-01T06:20:02.530Z,-0.1
2017-12-01T06:21:09.722Z,-0.1
2017-12-01T06:22:16.636Z,-0.1
2017-12-01T06:23:23.544Z,-0.1
2017-12-01T06:24:30.737Z,-0.1
2017-12-01T06:25:38.201Z,-0.1
2017-12-01T06:26:45.156Z,-0.1
2017-12-01T06:27:51.792Z,-0.1
2017-12-01T06:28:58.991Z,-0.1
2017-12-01T06:30:06.181Z,-0.1
2017-12-01T06:31:12.832Z,-0.1
2017-12-01T06:32:20.019Z,-0.1
2017-12-01T06:33:27.206Z,-0.1
2017-12-01T06:34:34.393Z,-0.1
2017-12-01T06:35:41.302Z,-0.1
2017-12-01T06:36:47.941Z,-0.1
2017-12-01T06:37:55.121Z,-0.1
2017-12-01T06:39:01.763Z,-0.1
2017-12-01T06:40:08.953Z,-0.1
2017-12-01T06:41:16.138Z,-0.1
2017-12-01T06:42:23.321Z,-0.1
2017-12-01T06:43:44.881Z,0
2017-12-01T06:44:51.793Z,0
2017-12-01T06:45:58.978Z,0
2017-12-01T06:47:05.892Z,-0.1
2017-12-01T06:48:13.081Z,-0.1
2017-12-01T06:49:19.998Z,-0.1
2017-12-01T06:50:26.905Z,0
2017-12-01T06:51:34.096Z,0
2017-12-01T06:52:41.279Z,0
2017-12-01T06:53:48.463Z,0
2017-12-01T06:54:55.375Z,0
2017-12-01T06:56:02.566Z,0
2017-12-01T06:57:09.482Z,0
2017-12-01T06:58:16.675Z,0
2017-12-01T06:59:23.589Z,0
2017-12-01T07:00:30.505Z,0
2017-12-01T07:01:37.418Z,0
2017-12-01T07:02:44.610Z,0
2017-12-01T07:03:51.795Z,0.1
2017-12-01T07:04:58.702Z,0.1
2017-12-01T07:06:05.608Z,0
2017-12-01T07:07:12.796Z,0.1
2017-12-01T07:08:19.985Z,0.1
2017-12-01T07:09:27.169Z,0.1
2017-12-01T07:10:34.367Z,0.1
2017-12-01T07:11:41.270Z,0.1
2017-12-01T07:12:48.463Z,0.2
2017-12-01T07:13:55.757Z,0.2
2017-12-01T07:15:02.945Z,0.2
2017-12-01T07:16:09.862Z,0.2
2017-12-01T07:17:16.495Z,0.2
2017-12-01T07:18:23.683Z,0.2
2017-12-01T07:19:30.319Z,0.2
2017-12-01T07:20:37.536Z,0.2
2017-12-01T07:21:44.445Z,0.2
2017-12-01T07:22:51.354Z,0.2
2017-12-01T07:23:58.537Z,0.2
2017-12-01T07:25:05.446Z,0.2
2017-12-01T07:26:12.633Z,0.2
2017-12-01T07:27:19.820Z,0.2
2017-12-01T07:28:27.002Z,0.2
2017-12-01T07:29:33.366Z,0.2
2017-12-01T07:30:40.553Z,0.2
2017-12-01T07:31:47.736Z,0.2
2017-12-01T07:32:54.649Z,0.2
2017-12-01T07:34:01.839Z,0.3
2017-12-01T07:35:09.026Z,0.2
2017-12-01T07:36:15.937Z,0.2
2017-12-01T07:37:23.123Z,0.2
2017-12-01T07:38:29.488Z,0.2
2017-12-01T07:39:36.122Z,0.3
2017-12-01T07:40:43.033Z,0.3
2017-12-01T07:41:50.223Z,0.3
2017-12-01T07:42:57.412Z,0.3
2017-12-01T07:44:04.326Z,0.3
2017-12-01T07:45:11.516Z,0.4
2017-12-01T07:46:18.149Z,0.3
2017-12-01T07:47:25.336Z,0.3
2017-12-01T07:48:32.247Z,0.3
2017-12-01T07:49:39.433Z,0.4
2017-12-01T07:50:46.623Z,0.4
2017-12-01T07:51:53.536Z,0.4
2017-12-01T07:53:00.722Z,0.4
2017-12-01T07:54:07.923Z,0.5
2017-12-01T07:55:15.109Z,0.5
2017-12-01T07:56:22.297Z,0.5
2017-12-01T07:57:29.490Z,0.5
2017-12-01T07:58:36.676Z,0.4
2017-12-01T07:59:43.589Z,0.4
2017-12-01T08:00:50.779Z,0.4
2017-12-01T08:01:57.706Z,0.4
2017-12-01T08:03:04.886Z,0.4
2017-12-01T08:04:12.072Z,0.4
2017-12-01T08:05:19.266Z,0.4
2017-12-01T08:06:26.177Z,0.4
2017-12-01T08:07:33.371Z,0.5
2017-12-01T08:08:40.279Z,0.5
2017-12-01T08:09:47.184Z,0.4
2017-12-01T08:10:54.368Z,0.4
2017-12-01T08:12:01.291Z,0.4
2017-12-01T08:13:08.201Z,0.4
2017-12-01T08:14:15.389Z,0.4
2017-12-01T08:15:22.327Z,0.4
2017-12-01T08:16:29.239Z,0.4
2017-12-01T08:17:36.427Z,0.4
2017-12-01T08:18:43.343Z,0.4
2017-12-01T08:19:50.257Z,0.3
2017-12-01T08:20:57.172Z,0.2
2017-12-01T08:22:04.358Z,0.2
2017-12-01T08:23:11.267Z,0.2
2017-12-01T08:24:17.933Z,0.3
2017-12-01T08:25:25.118Z,0.3
2017-12-01T08:26:32.312Z,0.3
2017-12-01T08:27:39.502Z,0.3
2017-12-01T08:28:46.690Z,0.3
2017-12-01T08:29:53.883Z,0.3
2017-12-01T08:31:01.072Z,0.4
2017-12-01T08:32:08.261Z,0.4
2017-12-01T08:33:15.447Z,0.4
2017-12-01T08:34:22.085Z,0.4
2017-12-01T08:35:28.730Z,0.5
2017-12-01T08:36:35.639Z,0.4
2017-12-01T08:37:42.272Z,0.4
2017-12-01T08:38:48.912Z,0.4
2017-12-01T08:39:56.097Z,0.4
2017-12-01T08:41:03.283Z,0.3
2017-12-01T08:42:10.199Z,0.3
2017-12-01T08:43:17.106Z,0.3
2017-12-01T08:44:24.289Z,0.3
2017-12-01T08:45:31.475Z,0.3
2017-12-01T08:46:38.384Z,0.3
2017-12-01T08:47:45.575Z,0.3
2017-12-01T08:48:52.758Z,0.4
2017-12-01T08:49:59.945Z,0.3
2017-12-01T08:51:06.869Z,0.3
2017-12-01T08:52:14.054Z,0.2
2017-12-01T08:53:20.964Z,0.3
2017-12-01T08:54:27.874Z,0.3
2017-12-01T08:55:34.790Z,0.3
2017-12-01T08:56:41.700Z,0.3
2017-12-01T08:57:48.888Z,0.4
2017-12-01T08:58:56.072Z,0.4
2017-12-01T09:00:03.264Z,0.4
2017-12-01T09:01:10.186Z,0.4
2017-12-01T09:02:17.097Z,0.5
